createdAt,value
2019-01-20T00:00:48.740Z,5.53
2019-01-20T00:03:17.365Z,5.20
2019-01-20T00:05:46.028Z,4.40
2019-01-20T00:08:14.729Z,5.57
2019-01-20T00:10:43.348Z,3.70
2019-01-20T00:13:12.020Z,4.00
2019-01-20T00:15:41.354Z,4.10
2019-01-20T00:18:10.038Z,7.43
2019-01-20T00:20:38.797Z,6.93
2019-01-20T00:23:07.474Z,6.27
2019-01-20T00:25:36.149Z,5.97
2019-01-20T00:28:04.874Z,6.03
2019-01-20T00:30:33.602Z,5.40
2019-01-20T00:33:02.220Z,4.30
2019-01-20T00:35:30.974Z,4.63
2019-01-20T00:37:59.584Z,5.37
2019-01-20T00:40:28.283Z,4.37
2019-01-20T00:42:56.910Z,5.90
2019-01-20T00:45:25.522Z,5.03
2019-01-20T00:47:54.205Z,5.27
2019-01-20T00:50:22.945Z,4.27
2019-01-20T00:52:51.624Z,4.37
2019-01-20T00:55:20.281Z,4.57
2019-01-20T00:57:50.109Z,3.57
2019-01-20T01:00:24.571Z,4.33
2019-01-20T01:02:53.250Z,2.93
2019-01-20T01:05:22.442Z,3.00
2019-01-20T01:07:52.084Z,3.90
2019-01-20T01:10:21.202Z,4.50
2019-01-20T01:12:50.540Z,2.90
2019-01-20T01:15:19.553Z,2.73
2019-01-20T01:17:48.260Z,4.77
2019-01-20T01:20:19.102Z,3.13
2019-01-20T01:22:48.067Z,3.60
2019-01-20T01:25:17.636Z,5.70
2019-01-20T01:27:46.239Z,6.47
2019-01-20T01:30:20.493Z,4.93
2019-01-20T01:32:49.313Z,4.57
2019-01-20T01:35:17.929Z,5.50
2019-01-20T01:37:46.694Z,5.53
2019-01-20T01:40:17.311Z,5.30
2019-01-20T01:42:45.940Z,4.70
2019-01-20T01:45:19.243Z,4.93
2019-01-20T01:47:47.934Z,6.43
2019-01-20T01:50:17.408Z,5.40
2019-01-20T01:52:46.203Z,4.73
2019-01-20T01:55:14.872Z,6.33
2019-01-20T01:57:43.600Z,6.17
2019-01-20T02:00:20.252Z,5.30
2019-01-20T02:02:49.019Z,5.33
2019-01-20T02:05:17.795Z,4.13
2019-01-20T02:07:46.411Z,4.70
2019-01-20T02:10:20.495Z,5.33
2019-01-20T02:12:50.107Z,4.53
2019-01-20T02:15:20.367Z,4.87
2019-01-20T02:17:50.696Z,3.97
2019-01-20T02:20:23.853Z,5.17
2019-01-20T02:22:52.501Z,4.40
2019-01-20T02:25:21.152Z,3.50
2019-01-20T02:27:51.425Z,4.77
2019-01-20T02:30:25.162Z,3.90
2019-01-20T02:32:53.864Z,4.60
2019-01-20T02:35:22.483Z,3.93
2019-01-20T02:37:51.115Z,4.43
2019-01-20T02:40:19.808Z,4.67
2019-01-20T02:42:48.527Z,4.37
2019-01-20T02:45:18.017Z,3.60
2019-01-20T02:47:46.680Z,3.97
2019-01-20T02:50:17.082Z,4.03
2019-01-20T02:52:45.765Z,3.50
2019-01-20T02:55:14.593Z,5.40
2019-01-20T02:57:43.873Z,4.20
2019-01-20T03:00:20.670Z,3.90
2019-01-20T03:02:50.434Z,4.43
2019-01-20T03:05:21.006Z,3.97
2019-01-20T03:07:49.667Z,4.50
2019-01-20T03:10:18.304Z,4.37
2019-01-20T03:12:46.951Z,4.50
2019-01-20T03:15:15.887Z,3.80
2019-01-20T03:17:44.753Z,2.80
2019-01-20T03:20:18.308Z,3.30
2019-01-20T03:22:47.017Z,4.23
2019-01-20T03:25:16.932Z,4.10
2019-01-20T03:27:45.614Z,3.13
2019-01-20T03:30:17.325Z,5.20
2019-01-20T03:32:46.153Z,4.97
2019-01-20T03:35:16.219Z,4.20
2019-01-20T03:37:44.913Z,3.70
2019-01-20T03:40:16.359Z,4.47
2019-01-20T03:42:45.099Z,2.60
2019-01-20T03:45:16.119Z,3.33
2019-01-20T03:47:44.835Z,4.00
2019-01-20T03:50:15.789Z,4.40
2019-01-20T03:52:44.527Z,3.70
2019-01-20T03:55:15.321Z,5.20
2019-01-20T03:57:43.954Z,4.70
2019-01-20T04:00:17.764Z,4.70
2019-01-20T04:02:47.942Z,3.07
2019-01-20T04:05:16.643Z,2.60
2019-01-20T04:07:45.273Z,3.20
2019-01-20T04:10:17.070Z,3.93
2019-01-20T04:12:45.691Z,4.57
2019-01-20T04:15:15.619Z,4.27
2019-01-20T04:17:44.297Z,4.20
2019-01-20T04:20:14.778Z,4.07
2019-01-20T04:22:43.521Z,3.60
2019-01-20T04:25:20.213Z,3.00
2019-01-20T04:27:48.811Z,5.60
2019-01-20T04:30:19.486Z,3.67
2019-01-20T04:32:48.675Z,3.87
2019-01-20T04:35:18.108Z,3.27
2019-01-20T04:37:46.807Z,3.70
2019-01-20T04:40:23.043Z,4.87
2019-01-20T04:42:51.729Z,3.40
2019-01-20T04:45:20.399Z,3.60
2019-01-20T04:47:49.078Z,3.57
2019-01-20T04:50:20.068Z,2.80
2019-01-20T04:52:48.767Z,3.93
2019-01-20T04:55:18.006Z,3.37
2019-01-20T04:57:51.067Z,4.47
2019-01-20T05:00:24.646Z,4.43
2019-01-20T05:02:53.328Z,4.27
2019-01-20T05:05:21.960Z,5.73
2019-01-20T05:07:50.622Z,2.80
2019-01-20T05:10:19.806Z,4.30
2019-01-20T05:12:48.431Z,5.03
2019-01-20T05:15:19.778Z,4.50
2019-01-20T05:17:48.396Z,4.03
2019-01-20T05:20:18.487Z,4.17
2019-01-20T05:22:47.115Z,2.77
2019-01-20T05:25:16.025Z,4.30
2019-01-20T05:27:44.702Z,3.30
2019-01-20T05:30:16.089Z,5.33
2019-01-20T05:32:44.705Z,3.77
2019-01-20T05:35:13.441Z,2.90
2019-01-20T05:37:42.115Z,3.60
2019-01-20T05:40:13.313Z,3.10
2019-01-20T05:42:46.343Z,4.53
2019-01-20T05:45:14.911Z,4.87
2019-01-20T05:47:43.603Z,3.17
2019-01-20T05:50:13.723Z,3.07
2019-01-20T05:52:42.401Z,4.23
2019-01-20T05:55:14.477Z,4.53
2019-01-20T05:57:43.353Z,3.90
2019-01-20T06:00:23.863Z,4.73
2019-01-20T06:02:52.633Z,3.57
2019-01-20T06:05:21.299Z,3.70
2019-01-20T06:07:49.938Z,3.00
2019-01-20T06:10:18.618Z,3.23
2019-01-20T06:12:53.929Z,3.60
2019-01-20T06:15:22.515Z,4.00
2019-01-20T06:17:51.131Z,3.17
2019-01-20T06:20:19.813Z,3.33
2019-01-20T06:22:48.501Z,4.30
2019-01-20T06:25:17.198Z,4.57
2019-01-20T06:27:46.230Z,5.10
2019-01-20T06:30:26.464Z,4.33
2019-01-20T06:32:55.152Z,5.73
2019-01-20T06:35:23.765Z,3.27
2019-01-20T06:37:52.722Z,3.87
2019-01-20T06:40:21.446Z,4.20
2019-01-20T06:42:50.079Z,4.23
2019-01-20T06:45:18.697Z,2.93
2019-01-20T06:47:47.406Z,3.17
2019-01-20T06:50:18.721Z,3.20
2019-01-20T06:52:47.428Z,2.40
2019-01-20T06:55:16.158Z,2.57
2019-01-20T06:57:44.955Z,4.10
2019-01-20T07:00:18.983Z,2.87
2019-01-20T07:02:47.613Z,3.10
2019-01-20T07:05:16.307Z,3.40
2019-01-20T07:07:44.922Z,4.87
2019-01-20T07:10:15.921Z,2.00
2019-01-20T07:12:44.748Z,2.57
2019-01-20T07:15:18.711Z,2.60
2019-01-20T07:17:47.602Z,2.90
2019-01-20T07:20:16.406Z,2.00
2019-01-20T07:22:45.126Z,2.63
2019-01-20T07:25:15.497Z,3.43
2019-01-20T07:27:44.118Z,3.80
2019-01-20T07:30:21.024Z,2.37
2019-01-20T07:32:49.696Z,4.10
2019-01-20T07:35:18.504Z,5.47
2019-01-20T07:37:47.125Z,6.30
2019-01-20T07:40:20.362Z,5.70
2019-01-20T07:42:49.062Z,4.30
2019-01-20T07:45:18.242Z,4.10
2019-01-20T07:47:46.972Z,4.53
2019-01-20T07:50:18.072Z,4.37
2019-01-20T07:52:46.822Z,5.30
2019-01-20T07:55:15.399Z,7.70
2019-01-20T07:57:44.054Z,7.60
2019-01-20T08:00:15.780Z,5.20
2019-01-20T08:03:00.444Z,5.90
2019-01-20T08:05:20.602Z,5.57
2019-01-20T08:07:49.509Z,8.20
2019-01-20T08:10:23.182Z,6.43
2019-01-20T08:12:54.138Z,6.10
2019-01-20T08:15:22.924Z,8.60
2019-01-20T08:17:51.644Z,34.27
2019-01-20T08:20:22.445Z,43.37
2019-01-20T08:22:51.197Z,48.47
2019-01-20T08:25:21.068Z,24.43
2019-01-20T08:27:50.248Z,15.00
2019-01-20T08:30:21.534Z,10.07
2019-01-20T08:32:51.857Z,6.40
2019-01-20T08:35:20.538Z,8.00
2019-01-20T08:37:49.223Z,46.10
2019-01-20T08:40:23.348Z,34.90
2019-01-20T08:42:51.947Z,13.33
2019-01-20T08:45:40.097Z,13.87
2019-01-20T08:48:17.912Z,13.10
2019-01-20T08:50:46.575Z,16.00
2019-01-20T08:53:15.275Z,14.73
2019-01-20T08:55:43.924Z,7.53
2019-01-20T08:58:12.728Z,6.50
2019-01-20T09:00:41.363Z,7.30
2019-01-20T09:03:10.059Z,7.53
2019-01-20T09:05:38.730Z,7.67
2019-01-20T09:08:07.414Z,8.50
2019-01-20T09:10:36.060Z,7.33
2019-01-20T09:13:06.460Z,8.70
2019-01-20T09:15:35.080Z,9.80
2019-01-20T09:18:03.774Z,6.33
2019-01-20T09:20:32.490Z,4.77
2019-01-20T09:23:01.203Z,5.17
2019-01-20T09:25:29.851Z,8.10
2019-01-20T09:28:00.113Z,7.13
2019-01-20T09:30:28.895Z,7.33
2019-01-20T09:32:57.540Z,7.40
2019-01-20T09:35:27.379Z,8.03
2019-01-20T09:38:03.637Z,10.00
2019-01-20T09:40:32.393Z,7.07
2019-01-20T09:43:01.125Z,6.90
2019-01-20T09:45:31.819Z,6.80
2019-01-20T09:48:00.602Z,6.93
2019-01-20T09:50:29.246Z,5.63
2019-01-20T09:52:57.934Z,5.87
2019-01-20T09:55:26.568Z,5.53
2019-01-20T09:57:57.964Z,6.00
2019-01-20T10:00:32.369Z,5.90
2019-01-20T10:03:01.143Z,5.63
2019-01-20T10:05:31.128Z,5.90
2019-01-20T10:08:00.825Z,6.43
2019-01-20T10:10:29.456Z,6.50
2019-01-20T10:12:58.234Z,7.20
2019-01-20T10:15:26.894Z,6.37
2019-01-20T10:17:57.098Z,7.23
2019-01-20T10:20:31.367Z,7.43
2019-01-20T10:23:00.090Z,7.17
2019-01-20T10:25:28.889Z,7.40
2019-01-20T10:27:59.106Z,6.90
2019-01-20T10:30:33.205Z,7.47
2019-01-20T10:33:03.347Z,6.33
2019-01-20T10:35:33.874Z,8.10
2019-01-20T10:38:04.209Z,6.50
2019-01-20T10:40:32.896Z,5.83
2019-01-20T10:43:01.509Z,6.20
2019-01-20T10:45:30.231Z,6.40
2019-01-20T10:48:00.291Z,6.93
2019-01-20T10:50:29.090Z,7.13
2019-01-20T10:52:57.742Z,6.13
2019-01-20T10:55:29.142Z,4.43
2019-01-20T10:57:57.761Z,4.53
2019-01-20T11:00:36.387Z,4.97
2019-01-20T11:03:05.877Z,5.00
2019-01-20T11:05:34.592Z,5.67
2019-01-20T11:08:03.206Z,4.60
2019-01-20T11:10:33.586Z,4.77
2019-01-20T11:13:03.865Z,4.23
2019-01-20T11:15:33.540Z,5.93
2019-01-20T11:18:02.096Z,3.10
2019-01-20T11:20:34.868Z,3.43
2019-01-20T11:23:03.504Z,4.00
2019-01-20T11:25:37.916Z,5.03
2019-01-20T11:28:06.559Z,4.10
2019-01-20T11:30:35.373Z,4.10
2019-01-20T11:33:05.561Z,3.70
2019-01-20T11:35:34.199Z,3.40
2019-01-20T11:38:02.869Z,3.57
2019-01-20T11:40:31.519Z,2.90
2019-01-20T11:43:00.220Z,3.17
2019-01-20T11:45:32.368Z,2.80
2019-01-20T11:48:01.315Z,4.00
2019-01-20T11:50:30.112Z,4.07
2019-01-20T11:52:58.723Z,4.43
2019-01-20T11:55:31.338Z,4.80
2019-01-20T11:57:59.991Z,4.93
2019-01-20T12:00:33.795Z,5.50
2019-01-20T12:03:02.603Z,4.63
2019-01-20T12:05:32.564Z,4.67
2019-01-20T12:08:03.293Z,4.07
2019-01-20T12:10:31.634Z,5.50
2019-01-20T12:13:01.866Z,4.50
2019-01-20T12:15:32.114Z,4.80
2019-01-20T12:18:00.736Z,4.23
2019-01-20T12:20:29.432Z,4.37
2019-01-20T12:22:58.174Z,5.90
2019-01-20T12:25:28.266Z,7.47
2019-01-20T12:27:57.266Z,3.80
2019-01-20T12:30:34.602Z,5.13
2019-01-20T12:33:03.270Z,6.20
2019-01-20T12:35:31.885Z,4.43
2019-01-20T12:38:00.715Z,4.30
2019-01-20T12:40:43.874Z,3.90
2019-01-20T12:43:15.353Z,5.33
2019-01-20T12:45:44.991Z,3.10
2019-01-20T12:48:13.689Z,4.83
2019-01-20T12:50:43.916Z,5.53
2019-01-20T12:53:14.193Z,3.77
2019-01-20T12:55:42.908Z,3.00
2019-01-20T12:58:11.713Z,3.20
2019-01-20T13:00:40.427Z,3.37
2019-01-20T13:03:09.113Z,4.50
2019-01-20T13:05:37.758Z,3.90
2019-01-20T13:08:06.432Z,3.60
2019-01-20T13:10:35.038Z,3.90
2019-01-20T13:13:03.745Z,3.97
2019-01-20T13:15:32.364Z,3.70
2019-01-20T13:18:00.969Z,3.70
2019-01-20T13:20:29.655Z,4.37
2019-01-20T13:22:58.277Z,3.97
2019-01-20T13:25:30.224Z,3.33
2019-01-20T13:28:06.344Z,4.17
2019-01-20T13:30:35.014Z,3.60
2019-01-20T13:33:03.753Z,3.90
2019-01-20T13:35:33.948Z,4.03
2019-01-20T13:38:05.633Z,3.20
2019-01-20T13:40:49.879Z,3.60
2019-01-20T13:43:18.548Z,4.07
2019-01-20T13:45:47.268Z,3.73
2019-01-20T13:48:15.900Z,3.47
2019-01-20T13:50:46.390Z,4.40
2019-01-20T13:53:15.051Z,4.00
2019-01-20T13:55:43.680Z,4.07
2019-01-20T13:58:12.326Z,3.33
2019-01-20T14:00:41.025Z,2.83
2019-01-20T14:03:09.747Z,3.17
2019-01-20T14:05:38.754Z,3.60
2019-01-20T14:08:07.463Z,3.37
2019-01-20T14:10:38.898Z,3.87
2019-01-20T14:13:07.590Z,2.63
2019-01-20T14:15:36.230Z,3.83
2019-01-20T14:18:06.995Z,3.00
2019-01-20T14:20:35.342Z,2.93
2019-01-20T14:23:04.396Z,3.13
2019-01-20T14:25:33.037Z,3.83
2019-01-20T14:28:03.301Z,5.17
2019-01-20T14:30:33.526Z,6.47
2019-01-20T14:33:04.494Z,4.57
2019-01-20T14:35:33.135Z,4.20
2019-01-20T14:38:05.130Z,4.47
2019-01-20T14:40:35.384Z,5.43
2019-01-20T14:43:05.507Z,4.67
2019-01-20T14:45:34.265Z,5.23
2019-01-20T14:48:04.470Z,5.30
2019-01-20T14:50:33.155Z,4.70
2019-01-20T14:53:01.877Z,5.10
2019-01-20T14:55:32.169Z,5.37
2019-01-20T14:58:00.872Z,4.73
2019-01-20T15:00:34.933Z,4.37
2019-01-20T15:03:04.320Z,4.47
2019-01-20T15:05:33.044Z,5.90
2019-01-20T15:08:01.844Z,6.40
2019-01-20T15:10:30.661Z,5.20
2019-01-20T15:12:59.337Z,4.60
2019-01-20T15:15:34.074Z,8.97
2019-01-20T15:18:05.577Z,17.10
2019-01-20T15:20:34.490Z,8.90
2019-01-20T15:23:04.296Z,5.77
2019-01-20T15:25:35.622Z,4.90
2019-01-20T15:28:04.425Z,5.30
2019-01-20T15:30:33.920Z,4.30
2019-01-20T15:33:05.055Z,4.37
2019-01-20T15:35:33.764Z,5.70
2019-01-20T15:38:02.423Z,5.10
2019-01-20T15:40:32.668Z,4.40
2019-01-20T15:43:01.431Z,4.10
2019-01-20T15:45:30.132Z,6.53
2019-01-20T15:48:00.818Z,4.30
2019-01-20T15:50:35.493Z,4.63
2019-01-20T15:53:04.415Z,4.83
2019-01-20T15:55:33.140Z,5.70
2019-01-20T15:58:01.775Z,5.83
2019-01-20T16:00:32.051Z,5.80
2019-01-20T16:03:01.071Z,5.97
2019-01-20T16:05:35.753Z,6.83
2019-01-20T16:08:04.476Z,6.63
2019-01-20T16:10:34.676Z,6.17
2019-01-20T16:13:03.388Z,5.53
2019-01-20T16:15:33.952Z,4.73
2019-01-20T16:18:05.301Z,4.17
2019-01-20T16:20:34.085Z,4.73
2019-01-20T16:23:02.799Z,4.40
2019-01-20T16:25:38.219Z,3.67
2019-01-20T16:28:08.579Z,3.10
2019-01-20T16:30:38.069Z,4.27
2019-01-20T16:33:06.794Z,4.50
2019-01-20T16:35:35.522Z,5.10
2019-01-20T16:38:04.517Z,4.93
2019-01-20T16:40:43.367Z,6.53
2019-01-20T16:43:12.033Z,5.50
2019-01-20T16:45:43.712Z,4.90
2019-01-20T16:48:12.294Z,5.87
2019-01-20T16:50:40.926Z,5.00
2019-01-20T16:53:11.128Z,5.40
2019-01-20T16:55:43.284Z,4.43
2019-01-20T16:58:12.004Z,7.30
2019-01-20T17:00:43.743Z,7.70
2019-01-20T17:03:12.299Z,8.17
2019-01-20T17:05:41.027Z,6.80
2019-01-20T17:08:11.415Z,6.13
2019-01-20T17:10:40.839Z,7.93
2019-01-20T17:13:11.681Z,9.00
2019-01-20T17:15:42.226Z,5.30
2019-01-20T17:18:13.211Z,4.53
2019-01-20T17:20:43.719Z,4.87
2019-01-20T17:23:12.473Z,4.70
2019-01-20T17:25:41.313Z,4.03
2019-01-20T17:28:11.425Z,4.70
2019-01-20T17:30:40.452Z,4.80
2019-01-20T17:33:10.731Z,4.93
2019-01-20T17:35:39.403Z,4.40
2019-01-20T17:38:09.108Z,4.50
2019-01-20T17:40:37.828Z,6.30
2019-01-20T17:43:09.029Z,9.40
2019-01-20T17:45:47.575Z,11.40
2019-01-20T17:48:11.023Z,11.30
2019-01-20T17:50:42.853Z,12.80
2019-01-20T17:53:15.225Z,12.70
2019-01-20T17:55:44.071Z,12.03
2019-01-20T17:58:12.753Z,10.93
2019-01-20T18:00:46.119Z,13.50
2019-01-20T18:03:16.350Z,10.73
2019-01-20T18:05:45.154Z,8.50
2019-01-20T18:08:15.568Z,6.87
2019-01-20T18:10:44.316Z,5.80
2019-01-20T18:13:13.089Z,5.97
2019-01-20T18:15:41.817Z,7.70
2019-01-20T18:18:10.966Z,6.13
2019-01-20T18:20:39.612Z,7.90
2019-01-20T18:23:08.712Z,8.63
2019-01-20T18:25:37.535Z,7.03
2019-01-20T18:28:09.326Z,7.87
2019-01-20T18:30:38.173Z,7.73
2019-01-20T18:33:06.996Z,10.40
2019-01-20T18:35:37.640Z,10.60
2019-01-20T18:38:06.439Z,10.23
2019-01-20T18:40:35.273Z,11.03
2019-01-20T18:43:04.080Z,10.60
2019-01-20T18:45:33.952Z,10.13
2019-01-20T18:48:02.761Z,11.00
2019-01-20T18:50:34.342Z,12.43
2019-01-20T18:53:03.165Z,12.70
2019-01-20T18:55:32.121Z,14.17
2019-01-20T18:58:00.942Z,13.03
2019-01-20T19:00:40.161Z,14.97
2019-01-20T19:03:09.006Z,14.53
2019-01-20T19:05:39.592Z,12.33
2019-01-20T19:08:08.258Z,13.20
2019-01-20T19:10:39.098Z,14.40
2019-01-20T19:13:07.522Z,14.10
2019-01-20T19:15:39.036Z,14.43
2019-01-20T19:18:09.013Z,14.47
2019-01-20T19:20:39.248Z,14.37
2019-01-20T19:23:09.835Z,13.97
2019-01-20T19:25:38.529Z,13.37
2019-01-20T19:28:07.320Z,14.67
2019-01-20T19:30:37.575Z,15.93
2019-01-20T19:33:07.906Z,17.00
2019-01-20T19:35:36.638Z,17.80
2019-01-20T19:38:05.384Z,17.23
2019-01-20T19:40:34.144Z,16.20
2019-01-20T19:43:02.817Z,14.03
2019-01-20T19:45:31.535Z,14.90
2019-01-20T19:48:00.236Z,12.50
2019-01-20T19:50:29.019Z,15.57
2019-01-20T19:52:59.440Z,14.47
2019-01-20T19:55:30.413Z,14.90
2019-01-20T19:58:00.136Z,17.53
2019-01-20T20:00:31.040Z,14.73
2019-01-20T20:03:01.780Z,15.97
2019-01-20T20:05:30.422Z,14.37
2019-01-20T20:07:59.167Z,14.73
2019-01-20T20:10:29.144Z,12.17
2019-01-20T20:13:06.382Z,11.63
2019-01-20T20:15:35.003Z,13.30
2019-01-20T20:18:05.676Z,16.57
2019-01-20T20:20:34.412Z,16.30
2019-01-20T20:23:03.172Z,15.10
2019-01-20T20:25:32.681Z,15.00
2019-01-20T20:28:01.407Z,17.03
2019-01-20T20:30:36.538Z,16.27
2019-01-20T20:33:05.568Z,16.00
2019-01-20T20:35:35.897Z,15.53
2019-01-20T20:38:04.938Z,13.17
2019-01-20T20:40:33.928Z,12.20
2019-01-20T20:43:02.627Z,12.27
2019-01-20T20:45:34.688Z,11.40
2019-01-20T20:48:03.305Z,11.63
2019-01-20T20:50:32.047Z,13.33
2019-01-20T20:53:00.727Z,16.73
2019-01-20T20:55:29.487Z,14.70
2019-01-20T20:57:58.130Z,15.43
2019-01-20T21:00:37.333Z,13.77
2019-01-20T21:03:09.373Z,13.07
2019-01-20T21:05:38.060Z,12.30
2019-01-20T21:08:06.702Z,12.97
2019-01-20T21:10:35.462Z,12.33
2019-01-20T21:13:04.216Z,13.03
2019-01-20T21:15:37.255Z,12.80
2019-01-20T21:18:07.249Z,14.30
2019-01-20T21:20:36.013Z,15.37
2019-01-20T21:23:11.830Z,15.37
2019-01-20T21:25:35.300Z,14.60
2019-01-20T21:28:05.509Z,15.30
2019-01-20T21:30:35.694Z,15.30
2019-01-20T21:33:04.450Z,12.93
2019-01-20T21:35:33.217Z,14.53
2019-01-20T21:38:06.710Z,14.50
2019-01-20T21:40:32.319Z,12.90
2019-01-20T21:43:00.983Z,14.07
2019-01-20T21:45:29.681Z,11.47
2019-01-20T21:47:58.422Z,10.90
2019-01-20T21:50:29.363Z,12.07
2019-01-20T21:53:01.165Z,12.30
2019-01-20T21:55:29.859Z,11.60
2019-01-20T21:57:58.483Z,11.83
2019-01-20T22:00:28.879Z,11.43
2019-01-20T22:02:57.671Z,8.60
2019-01-20T22:05:26.399Z,9.10
2019-01-20T22:07:56.607Z,8.93
2019-01-20T22:10:26.075Z,8.70
2019-01-20T22:12:55.135Z,8.77
2019-01-20T22:15:23.837Z,11.00
2019-01-20T22:17:52.517Z,11.53
2019-01-20T22:20:22.821Z,11.67
2019-01-20T22:22:52.074Z,12.43
2019-01-20T22:25:22.103Z,11.17
2019-01-20T22:27:52.334Z,10.63
2019-01-20T22:30:25.528Z,10.60
2019-01-20T22:32:54.154Z,10.17
2019-01-20T22:35:22.881Z,12.57
2019-01-20T22:37:51.566Z,8.70
2019-01-20T22:40:20.440Z,10.67
2019-01-20T22:42:49.152Z,10.23
2019-01-20T22:45:20.166Z,6.83
2019-01-20T22:47:48.926Z,8.57
2019-01-20T22:50:17.633Z,8.37
2019-01-20T22:52:46.237Z,8.60
2019-01-20T22:55:16.669Z,6.90
2019-01-20T22:57:45.262Z,7.00
2019-01-20T23:00:30.320Z,6.37
2019-01-20T23:02:58.946Z,6.50
2019-01-20T23:05:29.121Z,9.07
2019-01-20T23:07:57.905Z,8.70
2019-01-20T23:10:26.591Z,7.80
2019-01-20T23:12:55.239Z,8.57
2019-01-20T23:15:25.506Z,10.30
2019-01-20T23:17:54.198Z,10.33
2019-01-20T23:20:25.722Z,11.50
2019-01-20T23:22:54.358Z,11.50
2019-01-20T23:25:25.783Z,10.90
2019-01-20T23:27:54.432Z,11.20
2019-01-20T23:30:26.102Z,10.93
2019-01-20T23:32:54.907Z,9.47
2019-01-20T23:35:23.527Z,9.23
2019-01-20T23:37:52.150Z,9.20
2019-01-20T23:40:20.830Z,10.50
2019-01-20T23:42:49.524Z,10.53
2019-01-20T23:45:18.180Z,10.30
2019-01-20T23:47:48.440Z,11.53
2019-01-20T23:50:18.568Z,9.80
2019-01-20T23:52:50.408Z,11.07
2019-01-20T23:55:19.001Z,11.87
2019-01-20T23:57:47.627Z,10.00
